createdAt,value
2022-09-07T00:00:55.173Z,7.70
2022-09-07T00:03:23.507Z,7.80
2022-09-07T00:05:52.191Z,7.90
2022-09-07T00:08:22.638Z,7.90
2022-09-07T00:11:06.570Z,8.10
2022-09-07T00:13:37.382Z,8.00
2022-09-07T00:16:07.638Z,7.90
2022-09-07T00:18:35.473Z,8.20
2022-09-07T00:21:06.503Z,8.00
2022-09-07T00:23:35.324Z,7.90
2022-09-07T00:26:10.066Z,7.90
2022-09-07T00:28:38.427Z,8.20
2022-09-07T00:31:11.429Z,8.00
2022-09-07T00:33:39.378Z,7.80
2022-09-07T00:36:07.208Z,7.90
2022-09-07T00:38:35.064Z,7.90
2022-09-07T00:41:03.337Z,7.90
2022-09-07T00:43:39.195Z,7.80
2022-09-07T00:46:12.762Z,7.90
2022-09-07T00:48:47.783Z,8.00
2022-09-07T00:51:24.797Z,7.90
2022-09-07T00:53:58.383Z,7.90
2022-09-07T00:56:30.354Z,8.00
2022-09-07T00:58:58.875Z,8.00
2022-09-07T01:01:27.183Z,7.90
2022-09-07T01:03:57.176Z,8.00
2022-09-07T01:06:36.204Z,8.10
2022-09-07T01:09:08.377Z,8.00
2022-09-07T01:11:36.273Z,8.10
2022-09-07T01:14:07.322Z,7.90
2022-09-07T01:17:03.054Z,7.90
2022-09-07T01:20:04.449Z,8.00
2022-09-07T01:23:07.270Z,8.00
2022-09-07T01:26:05.633Z,8.00
2022-09-07T01:28:35.106Z,8.00
2022-09-07T01:31:18.095Z,8.00
2022-09-07T01:34:07.059Z,8.00
2022-09-07T01:36:48.832Z,8.10
2022-09-07T01:39:17.842Z,7.90
2022-09-07T01:41:54.569Z,7.90
2022-09-07T01:44:41.034Z,7.90
2022-09-07T01:47:29.110Z,7.90
2022-09-07T01:50:21.424Z,7.90
2022-09-07T01:53:17.289Z,8.00
2022-09-07T01:55:53.737Z,7.80
2022-09-07T01:58:28.573Z,7.80
2022-09-07T02:01:05.500Z,7.80
2022-09-07T02:03:41.238Z,7.80
2022-09-07T02:06:29.491Z,7.70
2022-09-07T02:09:03.874Z,7.80
2022-09-07T02:11:44.179Z,7.70
2022-09-07T02:14:22.616Z,7.80
2022-09-07T02:16:58.562Z,7.80
2022-09-07T02:19:30.523Z,7.70
2022-09-07T02:22:05.119Z,7.60
2022-09-07T02:24:39.765Z,7.60
2022-09-07T02:27:13.906Z,7.70
2022-09-07T02:29:43.684Z,7.60
2022-09-07T02:32:11.487Z,7.60
2022-09-07T02:34:39.052Z,7.60
2022-09-07T02:37:09.460Z,7.60
2022-09-07T02:39:37.355Z,7.40
2022-09-07T02:42:05.214Z,7.50
2022-09-07T02:44:37.412Z,7.60
2022-09-07T02:47:26.972Z,7.60
2022-09-07T02:50:21.894Z,7.50
2022-09-07T02:53:22.430Z,7.60
2022-09-07T02:56:08.136Z,7.40
2022-09-07T02:58:47.954Z,7.50
2022-09-07T03:01:32.891Z,7.40
2022-09-07T03:04:14.011Z,7.40
2022-09-07T03:06:52.606Z,7.50
2022-09-07T03:09:26.464Z,7.70
2022-09-07T03:11:54.960Z,7.90
2022-09-07T03:14:24.838Z,7.60
2022-09-07T03:16:56.270Z,7.60
2022-09-07T03:19:23.889Z,7.50
2022-09-07T03:21:51.446Z,7.60
2022-09-07T03:24:18.911Z,7.70
2022-09-07T03:26:49.536Z,7.70
2022-09-07T03:29:16.953Z,7.70
2022-09-07T03:31:44.372Z,7.60
2022-09-07T03:34:12.988Z,7.70
2022-09-07T03:36:41.606Z,7.80
2022-09-07T03:39:12.005Z,8.20
2022-09-07T03:41:39.889Z,7.70
2022-09-07T03:44:08.227Z,7.70
2022-09-07T03:46:36.042Z,7.70
2022-09-07T03:49:03.900Z,7.70
2022-09-07T03:51:31.521Z,7.70
2022-09-07T03:54:00.485Z,7.80
2022-09-07T03:56:28.070Z,7.70
2022-09-07T03:58:56.108Z,7.90
2022-09-07T04:01:26.352Z,7.70
2022-09-07T04:04:01.997Z,7.90
2022-09-07T04:06:30.925Z,7.80
2022-09-07T04:09:06.159Z,8.00
2022-09-07T04:11:34.173Z,7.80
2022-09-07T04:14:02.258Z,7.80
2022-09-07T04:16:29.952Z,7.70
2022-09-07T04:18:59.210Z,7.70
2022-09-07T04:21:28.686Z,7.60
2022-09-07T04:23:58.190Z,7.70
2022-09-07T04:26:28.897Z,7.60
2022-09-07T04:28:56.762Z,7.70
2022-09-07T04:31:25.286Z,7.60
2022-09-07T04:33:53.034Z,7.70
2022-09-07T04:36:21.448Z,7.70
2022-09-07T04:38:55.226Z,7.90
2022-09-07T04:41:23.227Z,7.80
2022-09-07T04:43:54.790Z,8.40
2022-09-07T04:46:25.877Z,8.10
2022-09-07T04:48:56.500Z,8.20
2022-09-07T04:51:26.713Z,8.40
2022-09-07T04:53:55.726Z,8.30
2022-09-07T04:56:24.277Z,8.60
2022-09-07T04:58:52.047Z,8.50
2022-09-07T05:01:21.928Z,8.70
2022-09-07T05:03:50.142Z,8.60
2022-09-07T05:06:19.079Z,8.90
2022-09-07T05:08:52.384Z,9.00
2022-09-07T05:11:26.254Z,9.60
2022-09-07T05:13:58.672Z,9.30
2022-09-07T05:16:27.998Z,9.40
2022-09-07T05:18:58.583Z,9.40
2022-09-07T05:21:28.717Z,9.30
2022-09-07T05:23:58.178Z,9.30
2022-09-07T05:26:28.701Z,9.60
2022-09-07T05:31:43.670Z,9.70
2022-09-07T05:36:59.545Z,10.70
2022-09-07T05:39:28.173Z,10.30
2022-09-07T05:41:56.236Z,10.30
2022-09-07T05:47:11.213Z,10.20
2022-09-07T05:49:39.212Z,10.20
2022-09-07T05:52:07.011Z,10.70
2022-09-07T05:54:34.768Z,10.80
2022-09-07T05:57:03.747Z,10.30
2022-09-07T05:59:31.176Z,10.20
2022-09-07T06:01:59.097Z,10.00
2022-09-07T06:04:27.348Z,10.90
2022-09-07T06:12:30.644Z,11.30
2022-09-07T06:14:58.189Z,10.40
2022-09-07T06:17:25.785Z,10.80
2022-09-07T06:19:53.198Z,11.40
2022-09-07T06:22:20.918Z,11.00
2022-09-07T06:24:48.316Z,11.90
2022-09-07T06:27:15.826Z,10.80
2022-09-07T06:29:43.263Z,10.50
2022-09-07T06:34:57.998Z,10.40
2022-09-07T06:37:25.319Z,13.80
2022-09-07T06:39:52.750Z,13.40
2022-09-07T06:42:20.152Z,13.60
2022-09-07T06:44:47.582Z,12.50
2022-09-07T06:47:15.194Z,14.40
2022-09-07T06:49:42.614Z,15.00
2022-09-07T06:52:10.093Z,14.20
2022-09-07T06:57:24.818Z,15.70
2022-09-07T06:59:52.177Z,15.90
2022-09-07T07:02:19.708Z,14.90
2022-09-07T07:04:47.174Z,13.40
2022-09-07T07:07:14.594Z,13.20
2022-09-07T07:09:42.746Z,13.00
2022-09-07T07:12:11.165Z,12.90
2022-09-07T07:14:43.943Z,12.30
2022-09-07T07:17:12.763Z,12.20
2022-09-07T07:19:40.085Z,12.40
2022-09-07T07:22:29.157Z,12.00
2022-09-07T07:24:55.091Z,12.60
2022-09-07T07:27:22.705Z,15.10
2022-09-07T07:29:50.186Z,15.40
2022-09-07T07:32:17.698Z,15.10
2022-09-07T07:34:45.153Z,14.90
2022-09-07T07:37:12.531Z,15.20
2022-09-07T07:42:27.614Z,13.60
2022-09-07T07:47:43.037Z,12.70
2022-09-07T07:55:46.357Z,12.20
2022-09-07T07:58:13.810Z,11.90
2022-09-07T08:00:54.337Z,11.90
2022-09-07T08:03:24.234Z,11.90
2022-09-07T08:05:52.318Z,11.80
2022-09-07T08:08:20.287Z,12.00
2022-09-07T08:10:48.942Z,12.30
2022-09-07T08:13:17.008Z,12.70
2022-09-07T08:15:46.585Z,12.80
2022-09-07T08:18:16.022Z,13.80
2022-09-07T08:20:43.995Z,14.70
2022-09-07T08:23:12.018Z,14.00
2022-09-07T08:25:48.877Z,13.80
2022-09-07T08:28:16.230Z,13.00
2022-09-07T08:30:43.887Z,13.10
2022-09-07T08:33:11.339Z,14.20
2022-09-07T08:35:38.830Z,15.70
2022-09-07T08:38:06.650Z,16.10
2022-09-07T08:40:37.884Z,15.20
2022-09-07T08:43:28.935Z,14.30
2022-09-07T08:46:04.888Z,14.30
2022-09-07T08:48:34.539Z,13.70
2022-09-07T08:51:19.069Z,13.20
2022-09-07T08:53:49.948Z,13.60
2022-09-07T08:56:31.561Z,14.70
2022-09-07T08:59:06.978Z,15.20
2022-09-07T09:01:41.593Z,15.00
2022-09-07T09:04:23.192Z,14.50
2022-09-07T09:07:08.417Z,14.00
2022-09-07T09:09:59.341Z,13.60
2022-09-07T09:12:49.012Z,13.60
2022-09-07T09:15:27.184Z,13.50
2022-09-07T09:18:22.032Z,15.10
2022-09-07T09:20:55.076Z,14.50
2022-09-07T09:23:31.670Z,13.50
2022-09-07T09:26:17.284Z,13.00
2022-09-07T09:28:45.011Z,13.20
2022-09-07T09:31:19.938Z,13.00
2022-09-07T09:34:23.830Z,13.00
2022-09-07T09:36:56.689Z,12.70
2022-09-07T09:39:42.782Z,12.60
2022-09-07T09:42:22.773Z,13.10
2022-09-07T09:44:50.862Z,12.60
2022-09-07T09:47:29.849Z,12.50
2022-09-07T09:50:01.667Z,12.70
2022-09-07T09:52:41.917Z,12.60
2022-09-07T09:55:34.275Z,12.60
2022-09-07T10:03:59.117Z,13.00
2022-09-07T10:06:29.010Z,13.50
2022-09-07T10:08:59.358Z,13.30
2022-09-07T10:14:39.237Z,13.20
2022-09-07T10:17:27.794Z,13.40
2022-09-07T10:20:01.211Z,13.00
2022-09-07T10:22:36.034Z,12.90
2022-09-07T10:25:24.630Z,12.80
2022-09-07T10:28:21.738Z,13.50
2022-09-07T10:31:20.297Z,12.70
2022-09-07T10:37:04.658Z,13.80
2022-09-07T10:39:46.098Z,13.10
2022-09-07T10:42:29.181Z,13.10
2022-09-07T10:45:27.705Z,13.10
2022-09-07T10:48:09.377Z,13.80
2022-09-07T10:51:09.997Z,13.00
2022-09-07T10:57:12.735Z,12.90
2022-09-07T11:00:10.348Z,12.80
2022-09-07T11:06:08.669Z,12.10
2022-09-07T11:09:22.320Z,11.80
2022-09-07T11:12:20.774Z,11.80
2022-09-07T11:15:10.850Z,11.80
2022-09-07T11:17:53.151Z,11.70
2022-09-07T11:20:28.288Z,11.70
2022-09-07T11:23:30.958Z,11.40
2022-09-07T11:26:29.370Z,11.80
2022-09-07T11:29:30.347Z,12.00
2022-09-07T11:32:05.161Z,11.30
2022-09-07T11:34:52.134Z,11.10
2022-09-07T11:37:33.313Z,11.20
2022-09-07T11:40:21.720Z,11.10
2022-09-07T11:43:20.243Z,10.70
2022-09-07T11:45:54.559Z,10.60
2022-09-07T11:48:30.707Z,10.80
2022-09-07T11:51:03.598Z,10.80
2022-09-07T11:53:36.744Z,10.40
2022-09-07T11:56:12.215Z,10.30
2022-09-07T11:59:06.628Z,10.30
2022-09-07T12:02:05.206Z,10.20
2022-09-07T12:04:56.847Z,10.00
2022-09-07T12:07:54.878Z,10.20
2022-09-07T12:10:58.409Z,10.30
2022-09-07T12:13:56.609Z,10.10
2022-09-07T12:16:49.625Z,9.90
2022-09-07T12:19:23.590Z,10.00
2022-09-07T12:22:01.255Z,9.90
2022-09-07T12:24:42.396Z,9.90
2022-09-07T12:27:39.912Z,9.90
2022-09-07T12:30:42.375Z,9.90
2022-09-07T12:33:28.554Z,9.90
2022-09-07T12:35:59.818Z,9.80
2022-09-07T12:39:01.577Z,10.00
2022-09-07T12:41:44.761Z,10.10
2022-09-07T12:44:19.929Z,9.80
2022-09-07T12:46:54.935Z,9.80
2022-09-07T12:49:56.862Z,9.80
2022-09-07T12:52:40.871Z,9.80
2022-09-07T12:55:28.407Z,9.70
2022-09-07T12:58:19.508Z,9.80
2022-09-07T13:01:07.600Z,9.70
2022-09-07T13:03:50.302Z,9.70
2022-09-07T13:09:31.308Z,9.80
2022-09-07T13:11:59.925Z,9.80
2022-09-07T13:14:29.968Z,9.70
2022-09-07T13:17:28.618Z,9.70
2022-09-07T13:20:20.272Z,9.70
2022-09-07T13:22:55.903Z,9.70
2022-09-07T13:25:45.816Z,9.60
2022-09-07T13:28:36.195Z,9.60
2022-09-07T13:31:34.655Z,9.60
2022-09-07T13:34:36.313Z,9.50
2022-09-07T13:37:16.224Z,9.50
2022-09-07T13:39:47.319Z,9.70
2022-09-07T13:42:19.423Z,9.50
2022-09-07T13:44:57.733Z,9.70
2022-09-07T13:47:45.450Z,9.50
2022-09-07T13:50:24.422Z,9.60
2022-09-07T13:53:17.098Z,9.60
2022-09-07T13:56:01.233Z,9.60
2022-09-07T13:58:36.020Z,9.60
2022-09-07T14:01:14.243Z,9.70
2022-09-07T14:03:55.295Z,9.90
2022-09-07T14:06:30.567Z,9.70
2022-09-07T14:09:04.427Z,9.70
2022-09-07T14:11:49.214Z,9.80
2022-09-07T14:14:22.817Z,9.80
2022-09-07T14:17:05.146Z,9.90
2022-09-07T14:19:40.230Z,10.00
2022-09-07T14:22:14.856Z,10.10
2022-09-07T14:24:49.411Z,10.00
2022-09-07T14:27:31.782Z,10.10
2022-09-07T14:30:30.652Z,10.30
2022-09-07T14:33:05.077Z,10.20
2022-09-07T14:35:34.085Z,10.40
2022-09-07T14:38:14.578Z,10.20
2022-09-07T14:40:43.207Z,10.20
2022-09-07T14:43:28.229Z,10.40
2022-09-07T14:46:22.940Z,10.30
2022-09-07T14:48:55.104Z,10.50
2022-09-07T14:51:35.205Z,10.30
2022-09-07T14:54:06.946Z,10.40
2022-09-07T14:56:38.300Z,10.50
2022-09-07T14:59:26.532Z,10.40
2022-09-07T15:02:29.448Z,10.40
2022-09-07T15:05:19.169Z,10.40
2022-09-07T15:07:50.433Z,10.10
2022-09-07T15:10:37.362Z,10.20
2022-09-07T15:13:23.912Z,10.30
2022-09-07T15:16:02.343Z,10.40
2022-09-07T15:18:50.881Z,10.50
2022-09-07T15:21:19.917Z,10.40
2022-09-07T15:23:51.478Z,10.30
2022-09-07T15:29:18.815Z,10.40
2022-09-07T15:31:59.203Z,10.40
2022-09-07T15:34:27.665Z,10.10
2022-09-07T15:36:57.440Z,10.30
2022-09-07T15:39:30.360Z,10.30
2022-09-07T15:42:00.595Z,10.50
2022-09-07T15:44:28.770Z,10.30
2022-09-07T15:49:50.328Z,10.10
2022-09-07T15:52:19.011Z,10.20
2022-09-07T15:54:47.074Z,10.10
2022-09-07T16:00:03.337Z,10.10
2022-09-07T16:05:20.487Z,10.00
2022-09-07T16:10:39.135Z,10.10
2022-09-07T16:13:11.917Z,10.00
2022-09-07T16:15:47.251Z,9.90
2022-09-07T16:18:17.310Z,10.00
2022-09-07T16:20:45.943Z,10.00
2022-09-07T16:23:16.786Z,9.90
2022-09-07T16:25:57.890Z,9.80
2022-09-07T16:28:26.549Z,9.90
2022-09-07T16:30:56.271Z,10.00
2022-09-07T16:33:31.584Z,10.00
2022-09-07T16:36:07.552Z,9.90
2022-09-07T16:38:51.119Z,9.90
2022-09-07T16:41:23.595Z,9.90
2022-09-07T16:43:51.602Z,9.90
2022-09-07T16:46:21.544Z,10.10
2022-09-07T16:48:51.647Z,9.90
2022-09-07T16:51:21.899Z,10.00
2022-09-07T16:53:52.244Z,10.00
2022-09-07T16:56:23.926Z,10.00
2022-09-07T16:58:56.011Z,10.10
2022-09-07T17:01:27.528Z,10.00
2022-09-07T17:03:55.810Z,10.10
2022-09-07T17:06:26.442Z,10.10
2022-09-07T17:08:55.002Z,10.00
2022-09-07T17:11:25.134Z,10.00
2022-09-07T17:13:54.583Z,9.90
2022-09-07T17:16:26.359Z,9.90
2022-09-07T17:21:44.407Z,10.00
2022-09-07T17:24:14.404Z,10.10
2022-09-07T17:26:42.951Z,10.00
2022-09-07T17:29:13.078Z,10.00
2022-09-07T17:34:30.800Z,10.00
2022-09-07T17:37:01.175Z,9.90
2022-09-07T17:39:30.780Z,9.80
2022-09-07T17:41:59.131Z,9.90
2022-09-07T17:44:30.898Z,9.90
2022-09-07T17:47:04.376Z,9.80
2022-09-07T17:49:33.458Z,9.80
2022-09-07T17:52:02.889Z,9.90
2022-09-07T17:54:32.812Z,9.90
2022-09-07T17:57:02.021Z,9.80
2022-09-07T18:02:21.149Z,9.80
2022-09-07T18:04:50.129Z,9.80
2022-09-07T18:07:19.813Z,9.80
2022-09-07T18:09:49.342Z,9.80
2022-09-07T18:12:18.349Z,9.80
2022-09-07T18:14:47.376Z,9.70
2022-09-07T18:17:16.673Z,9.60
2022-09-07T18:19:45.573Z,9.60
2022-09-07T18:22:15.281Z,9.50
2022-09-07T18:24:44.762Z,9.40
2022-09-07T18:27:14.887Z,9.30
2022-09-07T18:29:44.482Z,9.30
2022-09-07T18:32:13.957Z,9.30
2022-09-07T18:34:48.261Z,9.20
2022-09-07T18:37:20.529Z,9.20
2022-09-07T18:39:50.430Z,9.10
2022-09-07T18:42:20.079Z,9.10
2022-09-07T18:47:40.253Z,9.10
2022-09-07T18:50:11.050Z,9.10
2022-09-07T18:53:04.113Z,9.10
2022-09-07T18:55:30.312Z,9.10
2022-09-07T18:58:02.137Z,9.10
2022-09-07T19:00:32.785Z,9.10
2022-09-07T19:03:02.577Z,9.00
2022-09-07T19:08:22.251Z,9.10
2022-09-07T19:10:51.513Z,9.20
2022-09-07T19:13:21.190Z,9.30
2022-09-07T19:15:50.366Z,9.30
2022-09-07T19:18:19.760Z,9.30
2022-09-07T19:20:50.049Z,9.40
2022-09-07T19:23:19.184Z,9.40
2022-09-07T19:25:49.481Z,9.30
2022-09-07T19:28:20.080Z,9.40
2022-09-07T19:30:49.897Z,9.30
2022-09-07T19:33:19.568Z,9.30
2022-09-07T19:35:49.347Z,9.30
2022-09-07T19:38:19.477Z,9.30
2022-09-07T19:40:58.905Z,9.40
2022-09-07T19:43:33.823Z,9.30
2022-09-07T19:46:03.784Z,9.40
2022-09-07T19:48:34.243Z,9.40
2022-09-07T19:51:06.331Z,9.40
2022-09-07T19:53:38.711Z,9.40
2022-09-07T19:56:12.188Z,9.40
2022-09-07T19:58:43.400Z,9.30
2022-09-07T20:01:19.061Z,9.20
2022-09-07T20:03:56.308Z,9.20
2022-09-07T20:06:25.615Z,9.20
2022-09-07T20:08:56.673Z,9.20
2022-09-07T20:11:26.302Z,9.30
2022-09-07T20:13:56.471Z,9.30
2022-09-07T20:16:26.908Z,9.30
2022-09-07T20:18:56.167Z,9.30
2022-09-07T20:21:27.064Z,9.40
2022-09-07T20:23:56.523Z,9.40
2022-09-07T20:26:26.638Z,9.40
2022-09-07T20:29:10.958Z,9.40
2022-09-07T20:31:46.319Z,9.50
2022-09-07T20:34:17.675Z,9.50
2022-09-07T20:36:47.092Z,9.50
2022-09-07T20:39:17.379Z,9.60
2022-09-07T20:41:46.225Z,9.60
2022-09-07T20:44:15.631Z,9.60
2022-09-07T20:46:45.205Z,9.60
2022-09-07T20:49:14.281Z,9.60
2022-09-07T20:51:43.164Z,9.60
2022-09-07T20:54:12.140Z,9.70
2022-09-07T20:56:40.326Z,9.60
2022-09-07T20:59:08.297Z,9.60
2022-09-07T21:01:36.928Z,9.60
2022-09-07T21:04:06.509Z,9.60
2022-09-07T21:06:34.431Z,9.50
2022-09-07T21:09:02.578Z,9.50
2022-09-07T21:11:32.690Z,9.50
2022-09-07T21:14:06.483Z,9.40
2022-09-07T21:16:35.175Z,9.50
2022-09-07T21:19:05.397Z,9.40
2022-09-07T21:21:39.134Z,9.40
2022-09-07T21:24:15.039Z,9.40
2022-09-07T21:26:42.536Z,9.30
2022-09-07T21:29:17.295Z,9.20
2022-09-07T21:31:45.969Z,9.10
2022-09-07T21:34:14.266Z,9.00
2022-09-07T21:36:41.657Z,8.90
2022-09-07T21:39:12.596Z,8.90
2022-09-07T21:41:43.372Z,8.90
2022-09-07T21:44:13.638Z,8.90
2022-09-07T21:46:41.688Z,8.90
2022-09-07T21:49:09.399Z,8.90
2022-09-07T21:51:37.931Z,8.90
2022-09-07T21:54:05.518Z,8.90
2022-09-07T21:56:33.078Z,8.90
2022-09-07T21:59:02.091Z,8.80
2022-09-07T22:01:31.161Z,8.80
2022-09-07T22:04:01.206Z,8.80
2022-09-07T22:06:30.218Z,8.80
2022-09-07T22:08:58.929Z,8.90
2022-09-07T22:11:28.537Z,9.00
2022-09-07T22:13:57.908Z,8.90
2022-09-07T22:16:26.159Z,8.90
2022-09-07T22:18:54.783Z,8.90
2022-09-07T22:21:24.983Z,8.90
2022-09-07T22:23:56.361Z,8.90
2022-09-07T22:26:26.372Z,9.00
2022-09-07T22:28:54.677Z,8.90
2022-09-07T22:31:25.204Z,8.90
2022-09-07T22:33:54.301Z,9.00
2022-09-07T22:36:26.170Z,9.00
2022-09-07T22:38:55.174Z,9.00
2022-09-07T22:41:25.293Z,9.00
2022-09-07T22:43:52.771Z,9.00
2022-09-07T22:46:21.649Z,9.00
2022-09-07T22:48:49.510Z,9.10
2022-09-07T22:51:17.617Z,9.10
2022-09-07T22:53:45.186Z,9.20
2022-09-07T22:56:15.204Z,9.10
2022-09-07T22:58:51.983Z,9.10
2022-09-07T23:01:21.052Z,9.30
2022-09-07T23:03:49.510Z,9.20
2022-09-07T23:06:25.085Z,9.30
2022-09-07T23:08:54.004Z,9.30
2022-09-07T23:11:22.776Z,9.40
2022-09-07T23:13:52.835Z,9.30
2022-09-07T23:16:21.178Z,9.30
2022-09-07T23:18:49.492Z,9.30
2022-09-07T23:21:17.893Z,9.30
2022-09-07T23:23:52.364Z,9.30
2022-09-07T23:26:22.033Z,9.30
2022-09-07T23:28:54.817Z,9.30
2022-09-07T23:31:24.034Z,9.30
2022-09-07T23:33:51.561Z,9.30
2022-09-07T23:36:19.779Z,9.30
2022-09-07T23:38:48.595Z,9.30
2022-09-07T23:41:18.165Z,9.30
2022-09-07T23:43:45.934Z,9.30
2022-09-07T23:46:14.335Z,9.40
2022-09-07T23:48:44.661Z,9.40
2022-09-07T23:51:13.627Z,9.40
2022-09-07T23:53:41.638Z,9.50
2022-09-07T23:56:09.290Z,9.40
2022-09-07T23:58:36.858Z,9.30
